Jupiter Spirit — A8ZC2 — position and weather

sailwx.info

Track history (hours):
 
Tides and Currents Weather Stations Pressure Air Temp Water Temp Dewpoint Dewpoint Depression Visibility Wind Speed Wind Dir Waves Ship Positions

Jupiter Spirit

Last reported at 2014-Dec-05 21:23 UTC. Time now 2014-Dec-22 16:19 UTC.
Position N 36°00' W 005°10'.
Warning: this ship's position is 16 days out of date.

Length 183 m; draft 8.9 m.

Type: Cargo ship. MMSI: 636015173.

Date/timePositionNaut miles runAvg speedWind from/ knotsBaromVisibWave heightAir tempDewpointWater temp
2014-Dec-05 21:23N 36°00' W 005°10'1215.0
2014-Dec-05 20:33N 35°58' W 005°25'25711.6
2014-Dec-04 22:22N 38°14' W 009°58'1213.1
2014-Dec-04 21:28N 38°26' W 010°03'1313.1
2014-Dec-04 20:26N 38°39' W 010°06'74514.5
2014-Dec-02 17:13N 50°09' W 003°32'913.5
2014-Dec-02 16:33N 50°16' W 003°25'10 9.6
2014-Dec-02 15:33N 50°25' W 003°21'1414.1
2014-Dec-02 14:33N 50°25' W 002°59'3015.0
2014-Dec-02 12:33N 50°25' W 002°12'3416.8
2014-Dec-02 10:31N 50°27' W 001°18'1717.6
2014-Dec-02 09:33N 50°28' W 000°51'1716.7
2014-Dec-02 08:33N 50°30' W 000°25'1815.8
2014-Dec-02 07:25N 50°33' E 000°03'1315.1
2014-Dec-02 06:34N 50°36' E 000°23'1414.4
2014-Dec-02 05:33N 50°41' E 000°44'1515.0
2014-Dec-02 04:32N 50°49' E 001°04'1616.6
2014-Dec-02 03:33N 50°59' E 001°25'1817.8
2014-Dec-02 02:33N 51°12' E 001°44'1616.1
2014-Dec-02 01:34N 51°26' E 001°56'1515.1
2014-Dec-02 00:34N 51°21' E 002°19'1614.5
2014-Dec-01 23:26N 51°22' E 002°45'1515.2
2014-Dec-01 22:26N 51°24' E 003°09'1415.9
2014-Dec-01 21:33N 51°25' E 003°31'9 9.0
2014-Dec-01 20:34N 51°22' E 003°45'1010.2
2014-Dec-01 19:34N 51°26' E 003°60'9 9.5
2014-Dec-01 18:34N 51°22' E 004°13'6 6.4
2014-Dec-01 17:34N 51°17' E 004°19'2 1.9
2014-Dec-01 16:33N 51°16' E 004°17'2 2.2
2014-Dec-01 15:33N 51°16' E 004°13'0 0.0
2014-Dec-01 14:30N 51°16' E 004°13'0 0.0
2014-Dec-01 13:21N 51°16' E 004°13'0 0.0
2014-Dec-01 12:33N 51°16' E 004°13'0 0.0
2014-Dec-01 11:27N 51°16' E 004°13'0 0.0
2014-Dec-01 10:33N 51°16' E 004°13'0 0.0
2014-Dec-01 09:33N 51°16' E 004°13'0 0.0
2014-Dec-01 08:33N 51°16' E 004°13'0 0.0
2014-Dec-01 07:33N 51°16' E 004°13'0 0.0
2014-Dec-01 06:27N 51°16' E 004°13'0 0.0
2014-Dec-01 05:27N 51°16' E 004°13'0 0.0
2014-Dec-01 04:33N 51°16' E 004°13'0 0.0
2014-Dec-01 03:27N 51°16' E 004°13'0 0.0
2014-Dec-01 02:33N 51°16' E 004°13'0 0.0
2014-Dec-01 01:33N 51°16' E 004°13'0 0.0
2014-Dec-01 00:33N 51°16' E 004°13'0 0.0
2014-Nov-30 23:33N 51°16' E 004°13'0 0.0
2014-Nov-30 22:33N 51°16' E 004°13'0 0.0
2014-Nov-30 21:30N 51°16' E 004°13'0 0.0
2014-Nov-30 20:33N 51°16' E 004°13'0 0.0
2014-Nov-30 19:33N 51°16' E 004°13'0 0.0
2014-Nov-30 18:33N 51°16' E 004°13'0 0.0
2014-Nov-30 17:33N 51°16' E 004°13'0 0.0
2014-Nov-30 16:33N 51°16' E 004°13'0 0.0
2014-Nov-30 15:30N 51°16' E 004°13'0 0.0
2014-Nov-30 14:30N 51°16' E 004°13'0 0.0
2014-Nov-30 13:27N 51°16' E 004°13'0 0.0
2014-Nov-30 12:33N 51°16' E 004°13'0 0.0
2014-Nov-30 11:33N 51°16' E 004°13'0 0.0
2014-Nov-30 10:33N 51°16' E 004°13'0 0.0
2014-Nov-30 09:30N 51°16' E 004°13'0 0.0
2014-Nov-30 08:30N 51°16' E 004°13'0 0.0
2014-Nov-30 07:33N 51°16' E 004°13'0 0.0
2014-Nov-30 06:33N 51°16' E 004°13'0 0.0
2014-Nov-30 05:33N 51°16' E 004°13'0 0.0
2014-Nov-30 04:33N 51°16' E 004°13'0 0.0
2014-Nov-30 03:33N 51°16' E 004°13'0 0.0
2014-Nov-30 02:33N 51°16' E 004°13'0 0.0
2014-Nov-30 01:33N 51°16' E 004°13'0 0.0
2014-Nov-30 00:33N 51°16' E 004°13'0 0.0
2014-Nov-29 23:33N 51°16' E 004°13'0 0.0
2014-Nov-29 22:33N 51°16' E 004°13'0 0.0
2014-Nov-29 21:30N 51°16' E 004°13'0 0.0
2014-Nov-29 20:33N 51°16' E 004°13'0 0.0
2014-Nov-29 19:33N 51°16' E 004°13'0 0.0
2014-Nov-29 18:33N 51°16' E 004°13'0 0.0
2014-Nov-29 17:33N 51°16' E 004°13'0 0.0
2014-Nov-29 16:33N 51°16' E 004°13'0 0.0
2014-Nov-29 15:33N 51°16' E 004°13'0 0.0
2014-Nov-29 14:33N 51°16' E 004°13'0 0.0
2014-Nov-29 13:33N 51°16' E 004°13'0 0.0
2014-Nov-29 12:33N 51°16' E 004°13'0 0.0
2014-Nov-29 11:33N 51°16' E 004°13'0 0.0
2014-Nov-29 10:33N 51°16' E 004°13'0 0.0
2014-Nov-29 09:33N 51°16' E 004°13'0 0.0
2014-Nov-29 08:33N 51°16' E 004°13'0 0.1
2014-Nov-29 07:34N 51°17' E 004°13'2 2.1
2014-Nov-29 06:33N 51°16' E 004°17'1 0.7
2014-Nov-29 05:34N 51°16' E 004°18'9 8.8
2014-Nov-29 04:34N 51°23' E 004°10'1010.3
2014-Nov-29 03:34N 51°22' E 003°54'1212.1
2014-Nov-29 02:33N 51°26' E 003°36'1010.4
2014-Nov-29 01:33N 51°24' E 003°19'1312.4
2014-Nov-29 00:32N 51°26' E 002°59'1313.6
2014-Nov-28 23:33N 51°38' E 003°10'9 9.1
2014-Nov-28 22:33N 51°47' E 003°12'1514.7
2014-Nov-28 21:33N 52°01' E 003°21'1413.9
2014-Nov-28 20:33N 52°15' E 003°22'1513.2
2014-Nov-28 19:24N 52°29' E 003°28'1212.8
2014-Nov-28 18:30N 52°40' E 003°34'1313.7
2014-Nov-28 17:33N 52°50' E 003°48'1514.7
2014-Nov-28 16:34N 53°01' E 004°05'1715.5
2014-Nov-28 15:28N 53°12' E 004°26'1313.5
2014-Nov-28 14:32N 53°24' E 004°33'1212.3
2014-Nov-28 13:34N 53°31' E 004°49'1313.0
2014-Nov-28 12:34N 53°36' E 005°09'1312.7
2014-Nov-28 11:33N 53°40' E 005°30'1414.0
2014-Nov-28 10:33N 53°45' E 005°52'1413.5
2014-Nov-28 09:30N 53°48' E 006°15'4113.9
2014-Nov-28 06:33N 53°58' E 007°23'1212.1
2014-Nov-28 05:32N 53°56' E 007°43'1313.5
2014-Nov-28 04:33N 53°50' E 008°03'1616.4
2014-Nov-28 03:34N 53°39' E 008°24'7 7.3
2014-Nov-28 02:33N 53°34' E 008°33'0 0.5
2014-Nov-28 01:31N 53°35' E 008°33'0 0.0
2014-Nov-28 00:31N 53°35' E 008°33'0 0.0
2014-Nov-27 23:31N 53°35' E 008°33'0 0.0
2014-Nov-27 22:31N 53°35' E 008°33'0 0.0
2014-Nov-27 21:31N 53°35' E 008°33'0 0.0
2014-Nov-27 20:31N 53°35' E 008°33'0 0.0
2014-Nov-27 19:31N 53°35' E 008°33'0 0.0
2014-Nov-27 18:31N 53°35' E 008°33'0 0.0
2014-Nov-27 17:31N 53°35' E 008°33'0 0.0
2014-Nov-27 16:31N 53°35' E 008°33'0 0.0
2014-Nov-27 15:31N 53°35' E 008°33'0 0.0
2014-Nov-27 14:31N 53°35' E 008°33'0 0.4
2014-Nov-27 13:33N 53°34' E 008°33'3 3.2
2014-Nov-27 12:33N 53°37' E 008°29'1413.9
2014-Nov-27 11:33N 53°46' E 008°11'1413.5
2014-Nov-27 10:33N 53°52' E 007°51'1212.1
2014-Nov-27 09:33N 53°60' E 007°36'1110.7
2014-Nov-27 08:33N 54°03' E 007°18'2 1.2
2014-Nov-27 07:16N 54°03' E 007°16'2 2.9
2014-Nov-27 06:33N 54°02' E 007°19'4 3.5
2014-Nov-27 05:33N 54°05' E 007°15'1 0.8
2014-Nov-27 04:33N 54°05' E 007°17'3 2.8
2014-Nov-27 03:33N 54°03' E 007°20'8 7.7
2014-Nov-27 02:33N 54°01' E 007°33'1110.7
2014-Nov-27 01:33N 53°59' E 007°51'1110.7
2014-Nov-27 00:33N 54°01' E 008°09'1312.9
2014-Nov-26 23:34N 53°58' E 008°30'1313.4
2014-Nov-26 22:33N 53°50' E 008°49'1514.8
2014-Nov-26 21:33N 53°53' E 009°13'1414.1
2014-Nov-26 20:33N 53°42' E 009°29'1212.3
2014-Nov-26 19:33N 53°34' E 009°44'8 7.9
2014-Nov-26 18:33N 53°32' E 009°57'1 0.8
2014-Nov-26 17:33N 53°31' E 009°58'0 0.0
2014-Nov-26 16:30N 53°31' E 009°58'0 0.0
2014-Nov-26 15:24N 53°31' E 009°58'0 0.0
2014-Nov-26 14:31N 53°31' E 009°58'0 0.0
2014-Nov-26 13:33N 53°31' E 009°58'0 0.0
2014-Nov-26 12:34N 53°31' E 009°58'0 0.0
2014-Nov-26 11:33N 53°31' E 009°58'0 0.0
2014-Nov-26 10:33N 53°31' E 009°58'0 0.0
2014-Nov-26 09:27N 53°31' E 009°58'0 0.0
2014-Nov-26 08:34N 53°31' E 009°58'0 0.0
2014-Nov-26 07:30N 53°31' E 009°58'0 0.0
2014-Nov-26 06:30N 53°31' E 009°58'1 1.1
2014-Nov-26 05:34N 53°32' E 009°57'7 6.9
2014-Nov-26 04:33N 53°34' E 009°46'1211.8
2014-Nov-26 03:34N 53°41' E 009°30'1514.5
2014-Nov-26 02:34N 53°52' E 009°15'1212.3
2014-Nov-26 01:33N 53°50' E 008°54'1313.2
2014-Nov-26 00:33N 53°58' E 008°36'1615.9
2014-Nov-25 23:33N 53°59' E 008°09'4 3.6
2014-Nov-25 22:32N 54°03' E 008°08'0 0.0
2014-Nov-25 21:32N 54°03' E 008°08'  
Track history (hours):
 
Tides and Currents Weather Stations Pressure Air Temp Water Temp Dewpoint Dewpoint Depression Visibility Wind Speed Wind Dir Waves Ship Positions

Jupiter Spirit

Last reported at 2014-Dec-05 21:23 UTC. Time now 2014-Dec-22 16:19 UTC.
Position N 36°00' W 005°10'.
Warning: this ship's position is 16 days out of date.

Length 183 m; draft 8.9 m.

Type: Cargo ship. MMSI: 636015173.

Date/timePositionNaut miles runAvg speedWind from/ knotsBaromVisibWave heightAir tempDewpointWater temp
2014-Dec-05 21:23N 36°00' W 005°10'1215.0
2014-Dec-05 20:33N 35°58' W 005°25'25711.6
2014-Dec-04 22:22N 38°14' W 009°58'1213.1
2014-Dec-04 21:28N 38°26' W 010°03'1313.1
2014-Dec-04 20:26N 38°39' W 010°06'74514.5
2014-Dec-02 17:13N 50°09' W 003°32'913.5
2014-Dec-02 16:33N 50°16' W 003°25'10 9.6
2014-Dec-02 15:33N 50°25' W 003°21'1414.1
2014-Dec-02 14:33N 50°25' W 002°59'3015.0
2014-Dec-02 12:33N 50°25' W 002°12'3416.8
2014-Dec-02 10:31N 50°27' W 001°18'1717.6
2014-Dec-02 09:33N 50°28' W 000°51'1716.7
2014-Dec-02 08:33N 50°30' W 000°25'1815.8
2014-Dec-02 07:25N 50°33' E 000°03'1315.1
2014-Dec-02 06:34N 50°36' E 000°23'1414.4
2014-Dec-02 05:33N 50°41' E 000°44'1515.0
2014-Dec-02 04:32N 50°49' E 001°04'1616.6
2014-Dec-02 03:33N 50°59' E 001°25'1817.8
2014-Dec-02 02:33N 51°12' E 001°44'1616.1
2014-Dec-02 01:34N 51°26' E 001°56'1515.1
2014-Dec-02 00:34N 51°21' E 002°19'1614.5
2014-Dec-01 23:26N 51°22' E 002°45'1515.2
2014-Dec-01 22:26N 51°24' E 003°09'1415.9
2014-Dec-01 21:33N 51°25' E 003°31'9 9.0
2014-Dec-01 20:34N 51°22' E 003°45'1010.2
2014-Dec-01 19:34N 51°26' E 003°60'9 9.5
2014-Dec-01 18:34N 51°22' E 004°13'6 6.4
2014-Dec-01 17:34N 51°17' E 004°19'2 1.9
2014-Dec-01 16:33N 51°16' E 004°17'2 2.2
2014-Dec-01 15:33N 51°16' E 004°13'0 0.0
2014-Dec-01 14:30N 51°16' E 004°13'0 0.0
2014-Dec-01 13:21N 51°16' E 004°13'0 0.0
2014-Dec-01 12:33N 51°16' E 004°13'0 0.0
2014-Dec-01 11:27N 51°16' E 004°13'0 0.0
2014-Dec-01 10:33N 51°16' E 004°13'0 0.0
2014-Dec-01 09:33N 51°16' E 004°13'0 0.0
2014-Dec-01 08:33N 51°16' E 004°13'0 0.0
2014-Dec-01 07:33N 51°16' E 004°13'0 0.0
2014-Dec-01 06:27N 51°16' E 004°13'0 0.0
2014-Dec-01 05:27N 51°16' E 004°13'0 0.0
2014-Dec-01 04:33N 51°16' E 004°13'0 0.0
2014-Dec-01 03:27N 51°16' E 004°13'0 0.0
2014-Dec-01 02:33N 51°16' E 004°13'0 0.0
2014-Dec-01 01:33N 51°16' E 004°13'0 0.0
2014-Dec-01 00:33N 51°16' E 004°13'0 0.0
2014-Nov-30 23:33N 51°16' E 004°13'0 0.0
2014-Nov-30 22:33N 51°16' E 004°13'0 0.0
2014-Nov-30 21:30N 51°16' E 004°13'0 0.0
2014-Nov-30 20:33N 51°16' E 004°13'0 0.0
2014-Nov-30 19:33N 51°16' E 004°13'0 0.0
2014-Nov-30 18:33N 51°16' E 004°13'0 0.0
2014-Nov-30 17:33N 51°16' E 004°13'0 0.0
2014-Nov-30 16:33N 51°16' E 004°13'0 0.0
2014-Nov-30 15:30N 51°16' E 004°13'0 0.0
2014-Nov-30 14:30N 51°16' E 004°13'0 0.0
2014-Nov-30 13:27N 51°16' E 004°13'0 0.0
2014-Nov-30 12:33N 51°16' E 004°13'0 0.0
2014-Nov-30 11:33N 51°16' E 004°13'0 0.0
2014-Nov-30 10:33N 51°16' E 004°13'0 0.0
2014-Nov-30 09:30N 51°16' E 004°13'0 0.0
2014-Nov-30 08:30N 51°16' E 004°13'0 0.0
2014-Nov-30 07:33N 51°16' E 004°13'0 0.0
2014-Nov-30 06:33N 51°16' E 004°13'0 0.0
2014-Nov-30 05:33N 51°16' E 004°13'0 0.0
2014-Nov-30 04:33N 51°16' E 004°13'0 0.0
2014-Nov-30 03:33N 51°16' E 004°13'0 0.0
2014-Nov-30 02:33N 51°16' E 004°13'0 0.0
2014-Nov-30 01:33N 51°16' E 004°13'0 0.0
2014-Nov-30 00:33N 51°16' E 004°13'0 0.0
2014-Nov-29 23:33N 51°16' E 004°13'0 0.0
2014-Nov-29 22:33N 51°16' E 004°13'0 0.0
2014-Nov-29 21:30N 51°16' E 004°13'0 0.0
2014-Nov-29 20:33N 51°16' E 004°13'0 0.0
2014-Nov-29 19:33N 51°16' E 004°13'0 0.0
2014-Nov-29 18:33N 51°16' E 004°13'0 0.0
2014-Nov-29 17:33N 51°16' E 004°13'0 0.0
2014-Nov-29 16:33N 51°16' E 004°13'0 0.0
2014-Nov-29 15:33N 51°16' E 004°13'0 0.0
2014-Nov-29 14:33N 51°16' E 004°13'0 0.0
2014-Nov-29 13:33N 51°16' E 004°13'0 0.0
2014-Nov-29 12:33N 51°16' E 004°13'0 0.0
2014-Nov-29 11:33N 51°16' E 004°13'0 0.0
2014-Nov-29 10:33N 51°16' E 004°13'0 0.0
2014-Nov-29 09:33N 51°16' E 004°13'0 0.0
2014-Nov-29 08:33N 51°16' E 004°13'0 0.1
2014-Nov-29 07:34N 51°17' E 004°13'2 2.1
2014-Nov-29 06:33N 51°16' E 004°17'1 0.7
2014-Nov-29 05:34N 51°16' E 004°18'9 8.8
2014-Nov-29 04:34N 51°23' E 004°10'1010.3
2014-Nov-29 03:34N 51°22' E 003°54'1212.1
2014-Nov-29 02:33N 51°26' E 003°36'1010.4
2014-Nov-29 01:33N 51°24' E 003°19'1312.4
2014-Nov-29 00:32N 51°26' E 002°59'1313.6
2014-Nov-28 23:33N 51°38' E 003°10'9 9.1
2014-Nov-28 22:33N 51°47' E 003°12'1514.7
2014-Nov-28 21:33N 52°01' E 003°21'1413.9
2014-Nov-28 20:33N 52°15' E 003°22'1513.2
2014-Nov-28 19:24N 52°29' E 003°28'1212.8
2014-Nov-28 18:30N 52°40' E 003°34'1313.7
2014-Nov-28 17:33N 52°50' E 003°48'1514.7
2014-Nov-28 16:34N 53°01' E 004°05'1715.5
2014-Nov-28 15:28N 53°12' E 004°26'1313.5
2014-Nov-28 14:32N 53°24' E 004°33'1212.3
2014-Nov-28 13:34N 53°31' E 004°49'1313.0
2014-Nov-28 12:34N 53°36' E 005°09'1312.7
2014-Nov-28 11:33N 53°40' E 005°30'1414.0
2014-Nov-28 10:33N 53°45' E 005°52'1413.5
2014-Nov-28 09:30N 53°48' E 006°15'4113.9
2014-Nov-28 06:33N 53°58' E 007°23'1212.1
2014-Nov-28 05:32N 53°56' E 007°43'1313.5
2014-Nov-28 04:33N 53°50' E 008°03'1616.4
2014-Nov-28 03:34N 53°39' E 008°24'7 7.3
2014-Nov-28 02:33N 53°34' E 008°33'0 0.5
2014-Nov-28 01:31N 53°35' E 008°33'0 0.0
2014-Nov-28 00:31N 53°35' E 008°33'0 0.0
2014-Nov-27 23:31N 53°35' E 008°33'0 0.0
2014-Nov-27 22:31N 53°35' E 008°33'0 0.0
2014-Nov-27 21:31N 53°35' E 008°33'0 0.0
2014-Nov-27 20:31N 53°35' E 008°33'0 0.0
2014-Nov-27 19:31N 53°35' E 008°33'0 0.0
2014-Nov-27 18:31N 53°35' E 008°33'0 0.0
2014-Nov-27 17:31N 53°35' E 008°33'0 0.0
2014-Nov-27 16:31N 53°35' E 008°33'0 0.0
2014-Nov-27 15:31N 53°35' E 008°33'0 0.0
2014-Nov-27 14:31N 53°35' E 008°33'0 0.4
2014-Nov-27 13:33N 53°34' E 008°33'3 3.2
2014-Nov-27 12:33N 53°37' E 008°29'1413.9
2014-Nov-27 11:33N 53°46' E 008°11'1413.5
2014-Nov-27 10:33N 53°52' E 007°51'1212.1
2014-Nov-27 09:33N 53°60' E 007°36'1110.7
2014-Nov-27 08:33N 54°03' E 007°18'2 1.2
2014-Nov-27 07:16N 54°03' E 007°16'2 2.9
2014-Nov-27 06:33N 54°02' E 007°19'4 3.5
2014-Nov-27 05:33N 54°05' E 007°15'1 0.8
2014-Nov-27 04:33N 54°05' E 007°17'3 2.8
2014-Nov-27 03:33N 54°03' E 007°20'8 7.7
2014-Nov-27 02:33N 54°01' E 007°33'1110.7
2014-Nov-27 01:33N 53°59' E 007°51'1110.7
2014-Nov-27 00:33N 54°01' E 008°09'1312.9
2014-Nov-26 23:34N 53°58' E 008°30'1313.4
2014-Nov-26 22:33N 53°50' E 008°49'1514.8
2014-Nov-26 21:33N 53°53' E 009°13'1414.1
2014-Nov-26 20:33N 53°42' E 009°29'1212.3
2014-Nov-26 19:33N 53°34' E 009°44'8 7.9
2014-Nov-26 18:33N 53°32' E 009°57'1 0.8
2014-Nov-26 17:33N 53°31' E 009°58'0 0.0
2014-Nov-26 16:30N 53°31' E 009°58'0 0.0
2014-Nov-26 15:24N 53°31' E 009°58'0 0.0
2014-Nov-26 14:31N 53°31' E 009°58'0 0.0
2014-Nov-26 13:33N 53°31' E 009°58'0 0.0
2014-Nov-26 12:34N 53°31' E 009°58'0 0.0
2014-Nov-26 11:33N 53°31' E 009°58'0 0.0
2014-Nov-26 10:33N 53°31' E 009°58'0 0.0
2014-Nov-26 09:27N 53°31' E 009°58'0 0.0
2014-Nov-26 08:34N 53°31' E 009°58'0 0.0
2014-Nov-26 07:30N 53°31' E 009°58'0 0.0
2014-Nov-26 06:30N 53°31' E 009°58'1 1.1
2014-Nov-26 05:34N 53°32' E 009°57'7 6.9
2014-Nov-26 04:33N 53°34' E 009°46'1211.8
2014-Nov-26 03:34N 53°41' E 009°30'1514.5
2014-Nov-26 02:34N 53°52' E 009°15'1212.3
2014-Nov-26 01:33N 53°50' E 008°54'1313.2
2014-Nov-26 00:33N 53°58' E 008°36'1615.9
2014-Nov-25 23:33N 53°59' E 008°09'4 3.6
2014-Nov-25 22:32N 54°03' E 008°08'0 0.0
2014-Nov-25 21:32N 54°03' E 008°08'  

Dump ship's entire track history